Flight Track Log - Related Links

Times and Time Zones

All times are in EDT time to prevent confusion due to time zone crossing. See the SWA22 flight status page for this flight to view local times or setup timezone preferences in your user account.

Time Position Orientation Groundspeed Altitude Reporting Facility
EDT Latitude Longitude Course Direction KTS MPH feet Rate Location/Type
Tue 11:05:13 AM 26.2147 -97.6433 49° Northeast 148 170 1,000  Level Houston Center
Tue 11:05:56 AM 26.2389 -97.6119 49° Northeast 205 236 2,000 1,788 Climbing Houston Center
Tue 11:06:57 AM 26.3092 -97.5817 21° North 277 319 4,100 2,278 Climbing Houston Center
Tue 11:07:15 AM 26.3339 -97.5694 24° Northeast 283 326 5,000 3,450 Climbing Houston Center
Tue 11:08:17 AM 26.4122 -97.5331 23° Northeast 302 348 8,700 3,629 Climbing Houston Center
Tue 11:09:19 AM 26.4967 -97.4886 25° Northeast 312 359 12,500 3,145 Climbing Houston Center
Tue 11:10:21 AM 26.5772 -97.4447 26° Northeast 321 369 15,200 2,806 Climbing Houston Center
Tue 11:11:23 AM 26.6792 -97.4142 15° North 355 409 18,300 2,661 Climbing Houston Center
Tue 11:12:25 AM 26.7814 -97.4178 358° North 367 422 20,700 2,419 Climbing Houston Center
Tue 11:13:27 AM 26.8906 -97.4200 359° North 390 449 23,300 2,468 Climbing Houston Center
Tue 11:14:29 AM 27.0100 -97.4239 358° North 398 458 25,800 2,000 Climbing Houston Center
Tue 11:15:30 AM 27.1097 -97.3900 17° North 424 488 27,400 1,548 Climbing Houston Center
Tue 11:16:33 AM 27.2164 -97.3247 29° Northeast 435 501 29,000 1,452 Climbing Houston Center
Tue 11:17:34 AM 27.3278 -97.2581 28° Northeast 448 516 30,400 1,512 Climbing Houston Center
Tue 11:18:36 AM 27.4667 -97.1725 29° Northeast 468 539 32,100 1,597 Climbing Houston Center
Tue 11:19:38 AM 27.5833 -97.1036 28° Northeast 479 551 33,700 1,403 Climbing Houston Center
Tue 11:20:40 AM 27.7031 -97.0300 29° Northeast 486 559 35,000 629 Climbing Houston Center
Tue 11:21:42 AM 27.8219 -96.9578 28° Northeast 486 559 35,000 -242 Level Houston Center
Tue 11:22:44 AM 27.9403 -96.8842 29° Northeast 487 560 34,500 -768 Descending Houston Center
Tue 11:23:47 AM 28.0828 -96.7958 29° Northeast 487 560 33,400 -1,008 Descending Houston Center
Tue 11:24:49 AM 28.1828 -96.6903 43° Northeast 488 562 32,400 -968 Descending Houston Center
Tue 11:25:51 AM 28.2836 -96.5844 43° Northeast 493 567 31,400 -1,113 Descending Houston Center
Tue 11:26:53 AM 28.3825 -96.4847 42° Northeast 483 556 30,100 -1,839 Descending Houston Center
Tue 11:27:55 AM 28.4975 -96.4225 25° Northeast 462 532 27,600 -2,806 Descending Houston Center
Tue 11:28:57 AM 28.6347 -96.3578 22° Northeast 448 516 24,300 -2,565 Descending Houston Center
Tue 11:29:59 AM 28.7442 -96.3042 23° Northeast 431 496 22,300 -1,548 Descending Houston Center
Tue 11:31:01 AM 28.8447 -96.2564 23° Northeast 397 457 21,100 -1,258 Descending Houston Center
Tue 11:32:03 AM 28.9431 -96.2089 23° Northeast 388 447 19,700 -1,680 Descending Houston Center
Tue 11:33:06 AM 29.0408 -96.1628 22° Northeast 383 441 17,600 -2,400 Descending Houston Center
Tue 11:33:23 AM 29.0839 -96.1417 23° Northeast 378 435 16,500 -2,613 Descending Houston Center
Tue 11:34:08 AM 29.1522 -96.1092 23° Northeast 366 421 14,900 -2,019 Descending Houston Center
Tue 11:35:10 AM 29.2419 -96.0661 23° Northeast 356 410 12,900 -2,026 Descending Houston Center
Tue 11:35:25 AM 29.2711 -96.0514 24° Northeast 346 398 12,300 -1,065 Descending Houston Center
Tue 11:36:12 AM 29.3208 -96.0153 32° Northeast 337 388 11,800 -1,211 Descending Houston Center
Tue 11:37:14 AM 29.3783 -95.9383 49° Northeast 319 367 10,100 -1,282 Descending Houston Center
Tue 11:38:23 AM 29.4506 -95.8464 48° Northeast 304 350 9,000 -1,062 Descending Houston Center
Tue 11:39:24 AM 29.5053 -95.7753 49° Northeast 302 348 7,800 -1,230 Descending Houston Center
Tue 11:40:25 AM 29.5617 -95.7014 49° Northeast 307 353 6,500 -1,311 Descending Houston Center
Tue 11:41:23 AM 29.6114 -95.6364 49° Northeast 293 337 5,200 -1,400 Descending Houston Center
Tue 11:42:25 AM 29.6636 -95.5706 48° Northeast 282 325 3,700 -1,100 Descending Houston Center
Tue 11:43:23 AM 29.7136 -95.5008 50° Northeast 253 291 3,000 -763 Descending Houston Center
Tue 11:44:23 AM 29.7458 -95.4394 59° Northeast 222 255 2,200 -469 Descending Houston Center
Tue 11:45:31 AM 29.7328 -95.3819 105° East 212 244 2,000 -344 Descending Houston Center
Tue 11:46:25 AM 29.7017 -95.3483 137° Southeast 134 154 1,500 -574 Descending Houston Center
Tue 11:47:26 AM 29.6781 -95.3200 134° Southeast 116 133 900 -590 Descending Houston Center
Tue 11:48:27 AM 29.6569 -95.2936 133° Southeast 119 137 300 -358 Descending Houston Center
Tue 11:49:40 AM 29.6336 -95.2650 115° Southeast 120 138 100 -164 Descending Houston Center
Tue 11:50:00 AM 29.6454 -95.2789 115° Southeast  Level Estimated

Login

Don't have an account? Register now (free) for customized features, flight alerts, and more!